Time;durP1;ratioP1;P1;durP2;ratioP2;P2;SDS_P1;SDS_P2;PMS_P1;PMS_P2;Temp;Humidity;BMP_temperature;BMP_pressure;BME280_temperature;BME280_humidity;BME280_pressure;Samples;Min_cycle;Max_cycle;Signal;HPM_P1;HPM_P2
2023/09/11 00:01:51;;;;;;;2.35;1.65;;;;;;;;;;5134061;27;20434;-71
2023/09/11 00:04:18;;;;;;;1.67;1.35;;;;;;;;;;5134023;27;20168;-71
2023/09/11 00:06:45;;;;;;;2.25;1.52;;;;;;;;;;5133815;27;20120;-69
2023/09/11 00:09:11;;;;;;;2.85;1.80;;;;;;;;;;5133253;27;20051;-68
2023/09/11 00:11:38;;;;;;;2.22;1.85;;;;;;;;;;5134312;27;20051;-71
2023/09/11 00:14:05;;;;;;;2.85;1.98;;;;;;;;;;5133783;27;20517;-70
2023/09/11 00:16:32;;;;;;;3.35;1.90;;;;;;;;;;5133858;27;20138;-69
2023/09/11 00:18:58;;;;;;;2.58;1.90;;;;;;;;;;5133407;27;20047;-69
2023/09/11 00:21:25;;;;;;;4.07;2.03;;;;;;;;;;5133621;27;20043;-71
2023/09/11 00:23:52;;;;;;;2.97;1.67;;;;;;;;;;5132996;27;20054;-68
2023/09/11 00:26:18;;;;;;;1.85;1.50;;;;;;;;;;5133446;27;20053;-70
2023/09/11 00:28:45;;;;;;;2.67;2.00;;;;;;;;;;5133552;27;20039;-70
2023/09/11 00:31:12;;;;;;;2.97;2.10;;;;;;;;;;5133936;27;20095;-68
2023/09/11 00:33:39;;;;;;;2.85;2.15;;;;;;;;;;5133645;27;20051;-69
2023/09/11 00:36:05;;;;;;;2.22;1.80;;;;;;;;;;5133473;27;20419;-71
2023/09/11 00:38:32;;;;;;;3.65;1.95;;;;;;;;;;5133153;27;20061;-69
2023/09/11 00:40:59;;;;;;;2.80;1.70;;;;;;;;;;5132721;27;20058;-68
2023/09/11 00:43:25;;;;;;;3.10;2.00;;;;;;;;;;5131717;27;20047;-70
2023/09/11 00:45:55;;;;;;;2.72;2.00;;;;;;;;;;5131974;28;20047;-68
2023/09/11 00:48:23;;;;;;;2.33;1.75;;;;;;;;;;5131809;28;20503;-69
2023/09/11 00:50:50;;;;;;;3.58;1.80;;;;;;;;;;5132289;27;20051;-69
2023/09/11 00:53:19;;;;;;;2.83;1.85;;;;;;;;;;5131781;27;20453;-71
2023/09/11 00:55:47;;;;;;;2.33;1.70;;;;;;;;;;5131712;27;20046;-69
2023/09/11 00:58:16;;;;;;;3.10;2.15;;;;;;;;;;5131226;27;20427;-70
2023/09/11 01:00:44;;;;;;;2.90;2.08;;;;;;;;;;5131730;28;20039;-68
2023/09/11 01:03:12;;;;;;;2.55;1.83;;;;;;;;;;5131774;28;20126;-70
2023/09/11 01:05:40;;;;;;;2.60;1.70;;;;;;;;;;5131720;28;20043;-69
2023/09/11 01:08:06;;;;;;;2.20;1.80;;;;;;;;;;5131462;28;20523;-70
2023/09/11 01:10:34;;;;;;;2.67;2.08;;;;;;;;;;5131447;28;20616;-69
2023/09/11 01:13:03;;;;;;;4.85;2.05;;;;;;;;;;5131680;28;20047;-69
2023/09/11 01:15:40;;;;;;;4.57;2.00;;;;;;;;;;5131231;27;20043;-70
2023/09/11 01:18:13;;;;;;;2.85;1.67;;;;;;;;;;5131162;28;20047;-71
2023/09/11 01:20:58;;;;;;;2.75;1.65;;;;;;;;;;5131305;28;20059;-68
2023/09/11 01:23:50;;;;;;;2.65;1.90;;;;;;;;;;5131583;27;20499;-68
2023/09/11 01:26:41;;;;;;;2.28;1.77;;;;;;;;;;5131256;28;20055;-68
2023/09/11 01:29:08;;;;;;;2.28;1.80;;;;;;;;;;5131128;28;20051;-69
2023/09/11 01:31:37;;;;;;;2.55;1.70;;;;;;;;;;5131349;28;20045;-68
2023/09/11 01:34:04;;;;;;;1.90;1.60;;;;;;;;;;5131314;27;20051;-68
2023/09/11 01:36:31;;;;;;;1.75;1.35;;;;;;;;;;5131033;28;20058;-71
2023/09/11 01:38:59;;;;;;;2.17;1.70;;;;;;;;;;5130880;27;20039;-67
2023/09/11 01:41:32;;;;;;;9.15;1.83;;;;;;;;;;5131677;27;20051;-67
2023/09/11 01:44:03;;;;;;;2.20;1.50;;;;;;;;;;5132252;27;20039;-71
2023/09/11 01:46:31;;;;;;;4.20;1.70;;;;;;;;;;5131904;27;20069;-69
2023/09/11 01:49:00;;;;;;;2.03;1.50;;;;;;;;;;5131692;27;20495;-70
2023/09/11 01:51:29;;;;;;;3.15;1.60;;;;;;;;;;5131497;27;20047;-71
2023/09/11 01:53:57;;;;;;;2.35;1.60;;;;;;;;;;5131930;27;20127;-72
2023/09/11 01:56:24;;;;;;;2.25;1.50;;;;;;;;;;5131229;27;20043;-69
2023/09/11 01:58:51;;;;;;;1.67;1.30;;;;;;;;;;5131514;27;20122;-71
2023/09/11 02:01:17;;;;;;;3.60;1.67;;;;;;;;;;5131488;27;20567;-68
2023/09/11 02:03:44;;;;;;;1.88;1.45;;;;;;;;;;5131541;27;20054;-68
2023/09/11 02:06:11;;;;;;;3.28;1.50;;;;;;;;;;5131606;27;20071;-70
2023/09/11 02:08:38;;;;;;;1.77;1.30;;;;;;;;;;5131369;27;20077;-69
2023/09/11 02:11:07;;;;;;;2.00;1.70;;;;;;;;;;5130412;27;20089;-69
2023/09/11 02:13:35;;;;;;;2.17;1.42;;;;;;;;;;5131487;27;20072;-69
2023/09/11 02:16:01;;;;;;;2.38;1.58;;;;;;;;;;5131054;27;20043;-68
2023/09/11 02:18:28;;;;;;;1.75;1.30;;;;;;;;;;5131192;27;20079;-71
2023/09/11 02:20:55;;;;;;;2.85;1.70;;;;;;;;;;5131458;27;20047;-68
2023/09/11 02:23:22;;;;;;;1.80;1.50;;;;;;;;;;5131627;27;20066;-70
2023/09/11 02:25:50;;;;;;;2.10;1.35;;;;;;;;;;5130889;27;20383;-70
2023/09/11 02:28:16;;;;;;;2.03;1.67;;;;;;;;;;5131186;27;20096;-71
2023/09/11 02:30:43;;;;;;;2.85;1.80;;;;;;;;;;5131093;27;20069;-70
2023/09/11 02:33:09;;;;;;;2.35;1.63;;;;;;;;;;5131396;27;20066;-72
2023/09/11 02:35:36;;;;;;;2.38;1.63;;;;;;;;;;5131195;27;20050;-71
2023/09/11 02:38:03;;;;;;;2.70;1.67;;;;;;;;;;5131173;27;20079;-71
2023/09/11 02:40:30;;;;;;;3.60;2.00;;;;;;;;;;5130599;27;20055;-71
2023/09/11 02:42:56;;;;;;;1.90;1.50;;;;;;;;;;5131007;27;20043;-71
2023/09/11 02:45:23;;;;;;;2.47;1.80;;;;;;;;;;5130579;27;20043;-70
2023/09/11 02:47:50;;;;;;;2.15;1.42;;;;;;;;;;5130930;27;20054;-68
2023/09/11 02:50:16;;;;;;;2.20;1.70;;;;;;;;;;5130584;27;20103;-71
2023/09/11 02:52:43;;;;;;;1.88;1.55;;;;;;;;;;5131088;27;20074;-71
2023/09/11 02:55:11;;;;;;;2.72;1.50;;;;;;;;;;5130718;27;20122;-71
2023/09/11 02:57:38;;;;;;;3.35;1.90;;;;;;;;;;5130706;27;20050;-68
2023/09/11 03:00:07;;;;;;;2.50;1.70;;;;;;;;;;5130584;27;20043;-68
2023/09/11 03:02:34;;;;;;;1.92;1.48;;;;;;;;;;5130790;27;20075;-71
2023/09/11 03:05:01;;;;;;;2.92;1.83;;;;;;;;;;5130300;27;20096;-69
2023/09/11 03:07:27;;;;;;;2.45;1.65;;;;;;;;;;5130620;27;20043;-69
2023/09/11 03:09:54;;;;;;;2.40;1.65;;;;;;;;;;5130142;27;20051;-71
2023/09/11 03:12:21;;;;;;;2.78;1.60;;;;;;;;;;5130245;27;20437;-69
2023/09/11 03:14:52;;;;;;;2.35;1.80;;;;;;;;;;5130467;27;20125;-70
2023/09/11 03:17:18;;;;;;;2.45;1.73;;;;;;;;;;5130397;27;20051;-70
2023/09/11 03:19:45;;;;;;;2.33;1.75;;;;;;;;;;5130414;27;20055;-70
2023/09/11 03:22:12;;;;;;;2.55;1.90;;;;;;;;;;5130108;27;20107;-71
2023/09/11 03:24:38;;;;;;;3.22;1.90;;;;;;;;;;5130236;27;20043;-72
2023/09/11 03:27:05;;;;;;;4.18;1.80;;;;;;;;;;5130053;27;20062;-69
2023/09/11 03:29:32;;;;;;;3.30;2.10;;;;;;;;;;5130607;27;20100;-68
2023/09/11 03:31:58;;;;;;;3.15;2.20;;;;;;;;;;5130245;27;20055;-69
2023/09/11 03:34:25;;;;;;;2.80;2.00;;;;;;;;;;5130428;28;20070;-69
2023/09/11 03:36:52;;;;;;;3.00;2.08;;;;;;;;;;5129830;28;20104;-69
2023/09/11 03:39:18;;;;;;;3.25;2.00;;;;;;;;;;5129707;28;20046;-71
2023/09/11 03:41:45;;;;;;;4.30;1.88;;;;;;;;;;5129628;28;20051;-70
2023/09/11 03:44:12;;;;;;;2.88;1.92;;;;;;;;;;5130369;27;20104;-69
2023/09/11 03:46:39;;;;;;;2.60;1.98;;;;;;;;;;5130256;28;20039;-69
2023/09/11 03:49:05;;;;;;;2.50;2.00;;;;;;;;;;5130245;28;20047;-68
2023/09/11 03:51:32;;;;;;;4.43;2.50;;;;;;;;;;5129802;27;20046;-69
2023/09/11 03:53:59;;;;;;;2.60;2.28;;;;;;;;;;5129978;28;20058;-71
2023/09/11 03:56:25;;;;;;;3.20;2.30;;;;;;;;;;5129641;28;20047;-69
2023/09/11 03:58:52;;;;;;;2.40;2.00;;;;;;;;;;5130169;28;20112;-70
2023/09/11 04:01:19;;;;;;;4.68;2.30;;;;;;;;;;5129673;27;20053;-69
2023/09/11 04:03:46;;;;;;;4.20;2.40;;;;;;;;;;5130438;28;20126;-68
2023/09/11 04:06:13;;;;;;;3.83;2.42;;;;;;;;;;5130091;28;20043;-69
2023/09/11 04:08:39;;;;;;;4.15;2.50;;;;;;;;;;5130078;28;20048;-71
2023/09/11 04:11:06;;;;;;;4.82;2.50;;;;;;;;;;5129736;28;20049;-71
2023/09/11 04:13:33;;;;;;;3.00;2.38;;;;;;;;;;5130026;28;20051;-71
2023/09/11 04:16:00;;;;;;;3.63;2.13;;;;;;;;;;5129445;28;20608;-70
2023/09/11 04:18:27;;;;;;;4.10;2.60;;;;;;;;;;5129791;27;20054;-70
2023/09/11 04:21:04;;;;;;;4.30;2.72;;;;;;;;;;5129671;28;20108;-69
2023/09/11 04:23:30;;;;;;;3.35;2.53;;;;;;;;;;5130011;28;20051;-69
2023/09/11 04:25:57;;;;;;;3.92;2.30;;;;;;;;;;5129938;28;20115;-72
2023/09/11 04:28:24;;;;;;;5.40;2.65;;;;;;;;;;5129691;28;20502;-71
2023/09/11 04:30:50;;;;;;;3.45;2.63;;;;;;;;;;5129502;27;20527;-69
2023/09/11 04:33:18;;;;;;;4.18;2.47;;;;;;;;;;5130668;27;20039;-71
2023/09/11 04:35:45;;;;;;;4.40;2.60;;;;;;;;;;5133400;27;20061;-70
2023/09/11 04:38:12;;;;;;;3.78;2.40;;;;;;;;;;5133028;27;20047;-72
2023/09/11 04:40:39;;;;;;;2.78;2.20;;;;;;;;;;5133347;27;20050;-68
2023/09/11 04:43:05;;;;;;;4.10;2.60;;;;;;;;;;5133333;27;20043;-70
2023/09/11 04:45:33;;;;;;;3.35;2.40;;;;;;;;;;5133329;27;20065;-71
2023/09/11 04:48:02;;;;;;;4.32;2.85;;;;;;;;;;5133100;27;20043;-71
2023/09/11 04:50:29;;;;;;;4.10;2.55;;;;;;;;;;5114610;27;20616;-71
2023/09/11 04:52:56;;;;;;;3.17;2.38;;;;;;;;;;5132575;27;20104;-69
2023/09/11 04:55:23;;;;;;;3.03;2.28;;;;;;;;;;5132991;27;20050;-72
2023/09/11 04:57:49;;;;;;;4.05;2.60;;;;;;;;;;5132700;27;20047;-71
2023/09/11 05:00:16;;;;;;;3.95;2.63;;;;;;;;;;5132686;27;20044;-69
2023/09/11 05:02:46;;;;;;;3.30;2.70;;;;;;;;;;5132865;27;20118;-71
2023/09/11 05:05:13;;;;;;;3.72;2.83;;;;;;;;;;5133041;27;20490;-71
2023/09/11 05:07:41;;;;;;;4.03;2.63;;;;;;;;;;5132663;27;20111;-70
2023/09/11 05:10:09;;;;;;;3.55;2.28;;;;;;;;;;5132822;27;20051;-71
2023/09/11 05:12:36;;;;;;;3.50;2.65;;;;;;;;;;5132403;27;20495;-68
2023/09/11 05:15:03;;;;;;;2.92;2.42;;;;;;;;;;5132642;27;20509;-68
2023/09/11 05:17:29;;;;;;;4.07;2.70;;;;;;;;;;5132392;27;20047;-70
2023/09/11 05:19:56;;;;;;;3.47;1.92;;;;;;;;;;5132884;27;20039;-70
2023/09/11 05:22:23;;;;;;;3.33;2.58;;;;;;;;;;5113849;27;20050;-69
2023/09/11 05:24:50;;;;;;;3.30;2.20;;;;;;;;;;5132477;27;20050;-70
2023/09/11 05:27:17;;;;;;;3.10;2.50;;;;;;;;;;5132216;27;20043;-71
2023/09/11 05:29:43;;;;;;;4.97;2.80;;;;;;;;;;5132432;27;20144;-71
2023/09/11 05:32:10;;;;;;;3.63;2.42;;;;;;;;;;5132226;27;20051;-71
2023/09/11 05:34:37;;;;;;;4.40;2.47;;;;;;;;;;5132656;27;20063;-69
2023/09/11 05:37:03;;;;;;;2.97;2.35;;;;;;;;;;5132343;27;20047;-71
2023/09/11 05:39:32;;;;;;;3.90;2.80;;;;;;;;;;5132090;27;20513;-69
2023/09/11 05:41:58;;;;;;;3.88;2.55;;;;;;;;;;5131763;27;20051;-71
2023/09/11 05:44:25;;;;;;;3.35;2.45;;;;;;;;;;5130980;27;20112;-69
2023/09/11 05:46:51;;;;;;;4.82;2.47;;;;;;;;;;5113348;27;20491;-69
2023/09/11 05:49:18;;;;;;;3.80;2.47;;;;;;;;;;5132048;27;20055;-71
2023/09/11 05:51:45;;;;;;;4.22;2.40;;;;;;;;;;5131857;27;20046;-69
2023/09/11 05:54:11;;;;;;;3.55;2.58;;;;;;;;;;5131958;27;20054;-69
2023/09/11 05:56:38;;;;;;;2.95;2.03;;;;;;;;;;5132186;27;20049;-72
2023/09/11 05:59:05;;;;;;;3.45;2.20;;;;;;;;;;5131684;27;20050;-71
2023/09/11 06:01:32;;;;;;;3.47;2.35;;;;;;;;;;5131571;27;20047;-69
2023/09/11 06:03:59;;;;;;;3.63;2.70;;;;;;;;;;5131494;27;20043;-71
2023/09/11 06:06:26;;;;;;;2.92;2.10;;;;;;;;;;5131971;27;20076;-68
2023/09/11 06:08:54;;;;;;;3.38;2.45;;;;;;;;;;5131345;27;20380;-68
2023/09/11 06:11:21;;;;;;;5.95;2.67;;;;;;;;;;5131395;27;20518;-69
2023/09/11 06:13:49;;;;;;;3.53;2.47;;;;;;;;;;5131587;27;20438;-72
2023/09/11 06:16:15;;;;;;;2.92;1.90;;;;;;;;;;5131756;27;20051;-71
2023/09/11 06:18:42;;;;;;;2.50;1.90;;;;;;;;;;5131224;27;20079;-69
2023/09/11 06:21:10;;;;;;;3.42;2.38;;;;;;;;;;5131015;27;20437;-69
2023/09/11 06:23:37;;;;;;;3.03;2.20;;;;;;;;;;5130816;27;20491;-72
2023/09/11 06:26:03;;;;;;;4.68;2.30;;;;;;;;;;5131179;27;20635;-67
2023/09/11 06:28:30;;;;;;;4.18;2.63;;;;;;;;;;5131193;27;20573;-69
2023/09/11 06:30:59;;;;;;;16.65;3.58;;;;;;;;;;5131497;27;20043;-69
2023/09/11 06:33:27;;;;;;;6.40;2.67;;;;;;;;;;5130866;27;20639;-70
2023/09/11 06:35:54;;;;;;;5.90;2.53;;;;;;;;;;5131040;27;20040;-71
2023/09/11 06:38:21;;;;;;;6.22;2.63;;;;;;;;;;5130706;27;20115;-69
2023/09/11 06:40:48;;;;;;;6.80;2.42;;;;;;;;;;5131015;27;20055;-72
2023/09/11 06:43:14;;;;;;;8.55;2.50;;;;;;;;;;5131034;27;20114;-70
2023/09/11 06:45:41;;;;;;;3.13;2.30;;;;;;;;;;5131162;27;20051;-70
2023/09/11 06:48:11;;;;;;;4.05;2.25;;;;;;;;;;5130898;27;20130;-71
2023/09/11 06:50:41;;;;;;;5.05;2.10;;;;;;;;;;5130930;27;20070;-69
2023/09/11 06:53:09;;;;;;;3.43;2.27;;;;;;;;;;5130293;27;20599;-72
2023/09/11 06:55:43;;;;;;;2.75;1.77;;;;;;;;;;5130551;27;20049;-72
2023/09/11 06:58:09;;;;;;;3.35;2.20;;;;;;;;;;5130305;27;20051;-72
2023/09/11 07:00:36;;;;;;;2.80;1.83;;;;;;;;;;5130973;27;20047;-71
2023/09/11 07:03:03;;;;;;;2.97;2.00;;;;;;;;;;5130374;27;20047;-69
2023/09/11 07:05:30;;;;;;;3.10;2.20;;;;;;;;;;5130800;27;20047;-70
2023/09/11 07:07:57;;;;;;;2.97;2.10;;;;;;;;;;5130319;27;20453;-69
2023/09/11 07:10:24;;;;;;;4.50;1.95;;;;;;;;;;5130549;27;20449;-71
2023/09/11 07:13:06;;;;;;;3.55;2.05;;;;;;;;;;5130240;27;20074;-69
2023/09/11 07:15:33;;;;;;;7.20;2.38;;;;;;;;;;5130248;27;20491;-72
2023/09/11 07:18:00;;;;;;;2.67;2.08;;;;;;;;;;5130201;27;20058;-69
2023/09/11 07:20:27;;;;;;;3.65;2.35;;;;;;;;;;5130463;27;20047;-71
2023/09/11 07:22:54;;;;;;;3.80;2.40;;;;;;;;;;5130438;27;20050;-72
2023/09/11 07:25:22;;;;;;;4.22;2.38;;;;;;;;;;5130440;27;20130;-72
2023/09/11 07:27:53;;;;;;;2.50;2.08;;;;;;;;;;5130741;27;20043;-70
2023/09/11 07:30:19;;;;;;;4.68;2.20;;;;;;;;;;5130226;27;20126;-72
2023/09/11 07:32:47;;;;;;;3.88;2.30;;;;;;;;;;5129946;27;20418;-72
2023/09/11 07:35:13;;;;;;;4.13;2.50;;;;;;;;;;5129997;28;20593;-72
2023/09/11 07:37:40;;;;;;;4.45;2.40;;;;;;;;;;5130112;28;20050;-69
2023/09/11 07:40:09;;;;;;;3.10;1.98;;;;;;;;;;5129863;28;20051;-72
2023/09/11 07:42:36;;;;;;;4.35;2.40;;;;;;;;;;5130215;28;20039;-71
2023/09/11 07:45:03;;;;;;;2.60;1.92;;;;;;;;;;5130408;28;20126;-70
2023/09/11 07:47:30;;;;;;;4.05;2.30;;;;;;;;;;5130690;28;20051;-69
2023/09/11 07:49:57;;;;;;;4.30;2.08;;;;;;;;;;5130326;28;20108;-69
2023/09/11 07:52:23;;;;;;;3.58;2.17;;;;;;;;;;5130140;28;20410;-70
2023/09/11 07:54:50;;;;;;;3.22;1.95;;;;;;;;;;5130131;28;20051;-72
2023/09/11 07:57:17;;;;;;;6.53;2.47;;;;;;;;;;5130153;27;20043;-71
2023/09/11 07:59:44;;;;;;;4.28;2.42;;;;;;;;;;5130282;28;20047;-72
2023/09/11 08:02:11;;;;;;;2.92;2.20;;;;;;;;;;5130055;28;20638;-70
2023/09/11 08:04:40;;;;;;;3.05;2.17;;;;;;;;;;5129949;28;20054;-69
2023/09/11 08:07:07;;;;;;;7.68;2.22;;;;;;;;;;5130071;27;20138;-72
2023/09/11 08:09:34;;;;;;;3.58;2.30;;;;;;;;;;5133113;27;20162;-72
2023/09/11 08:12:00;;;;;;;3.53;2.05;;;;;;;;;;5134015;27;20047;-70
2023/09/11 08:14:27;;;;;;;3.33;2.22;;;;;;;;;;5133980;27;20116;-69
2023/09/11 08:16:54;;;;;;;2.30;1.80;;;;;;;;;;5134561;27;20108;-69
2023/09/11 08:19:21;;;;;;;5.32;2.05;;;;;;;;;;5133979;27;20051;-69
2023/09/11 08:21:48;;;;;;;2.97;1.95;;;;;;;;;;5133970;27;20070;-69
2023/09/11 08:24:14;;;;;;;5.85;2.40;;;;;;;;;;5133790;27;20080;-69
2023/09/11 08:26:41;;;;;;;4.15;2.13;;;;;;;;;;5133596;27;20047;-69
2023/09/11 08:29:10;;;;;;;6.38;2.25;;;;;;;;;;5133488;27;20049;-69
2023/09/11 08:31:37;;;;;;;2.80;2.25;;;;;;;;;;5133699;27;20171;-68
2023/09/11 08:34:04;;;;;;;3.90;2.40;;;;;;;;;;5133188;27;20107;-70
2023/09/11 08:36:31;;;;;;;2.53;1.95;;;;;;;;;;5133800;27;20044;-69
2023/09/11 08:38:58;;;;;;;2.53;2.00;;;;;;;;;;5133573;27;20053;-71
2023/09/11 08:41:26;;;;;;;2.85;2.08;;;;;;;;;;5133231;27;20120;-72
2023/09/11 08:43:53;;;;;;;3.53;2.15;;;;;;;;;;5133149;27;20122;-71
2023/09/11 08:46:21;;;;;;;3.35;2.10;;;;;;;;;;5133650;27;20043;-69
2023/09/11 08:48:52;;;;;;;3.50;2.22;;;;;;;;;;5133488;27;20043;-72
2023/09/11 08:51:26;;;;;;;3.28;2.30;;;;;;;;;;5133617;27;20047;-73
2023/09/11 08:53:54;;;;;;;2.80;1.95;;;;;;;;;;5133400;27;20044;-71
2023/09/11 08:56:22;;;;;;;2.58;1.85;;;;;;;;;;5133062;27;20502;-72
2023/09/11 08:58:51;;;;;;;4.07;2.30;;;;;;;;;;5133142;27;20054;-71
2023/09/11 09:01:20;;;;;;;3.42;2.25;;;;;;;;;;5132802;27;20043;-71
2023/09/11 09:03:49;;;;;;;3.55;2.17;;;;;;;;;;5132910;27;20051;-69
2023/09/11 09:06:16;;;;;;;3.35;2.35;;;;;;;;;;5132918;27;20050;-71
2023/09/11 09:08:43;;;;;;;3.10;2.17;;;;;;;;;;5133021;27;20047;-69
2023/09/11 09:11:11;;;;;;;3.10;2.25;;;;;;;;;;5133142;27;20136;-72
2023/09/11 09:13:38;;;;;;;4.05;2.40;;;;;;;;;;5132882;27;20035;-71
2023/09/11 09:16:05;;;;;;;3.63;1.95;;;;;;;;;;5132823;27;20499;-69
2023/09/11 09:18:32;;;;;;;3.60;2.65;;;;;;;;;;5132398;27;20388;-70
2023/09/11 09:21:00;;;;;;;5.38;2.33;;;;;;;;;;5132458;27;20047;-70
2023/09/11 09:23:36;;;;;;;4.95;2.30;;;;;;;;;;5132366;27;20051;-71
2023/09/11 09:26:08;;;;;;;3.83;2.10;;;;;;;;;;5132631;27;20047;-71
2023/09/11 09:28:42;;;;;;;3.03;2.20;;;;;;;;;;5132828;27;20679;-68
2023/09/11 09:31:12;;;;;;;6.88;2.58;;;;;;;;;;5132596;27;20108;-74
2023/09/11 09:33:39;;;;;;;4.63;2.80;;;;;;;;;;5132440;27;20039;-73
2023/09/11 09:36:07;;;;;;;3.30;2.30;;;;;;;;;;5132206;27;20043;-69
2023/09/11 09:38:34;;;;;;;3.58;2.03;;;;;;;;;;5132176;27;20529;-72
2023/09/11 09:41:11;;;;;;;4.55;2.30;;;;;;;;;;5132068;27;20716;-69
2023/09/11 09:43:38;;;;;;;3.95;2.30;;;;;;;;;;5132650;27;20096;-69
2023/09/11 09:46:19;;;;;;;2.83;2.10;;;;;;;;;;5132135;27;20068;-69
2023/09/11 09:48:46;;;;;;;2.67;2.05;;;;;;;;;;5132474;27;20531;-69
2023/09/11 09:51:13;;;;;;;5.70;2.50;;;;;;;;;;5132222;27;20403;-69
2023/09/11 09:53:41;;;;;;;3.70;2.33;;;;;;;;;;5131943;27;20092;-70
2023/09/11 09:56:10;;;;;;;5.28;2.63;;;;;;;;;;5131914;27;20047;-70
2023/09/11 09:58:42;;;;;;;3.92;2.35;;;;;;;;;;5131828;27;20043;-69
2023/09/11 10:01:14;;;;;;;4.03;2.58;;;;;;;;;;5132453;27;20282;-72
2023/09/11 10:03:45;;;;;;;3.78;2.55;;;;;;;;;;5132427;27;20185;-72
2023/09/11 10:06:16;;;;;;;4.40;2.40;;;;;;;;;;5132335;27;20043;-72
2023/09/11 10:08:43;;;;;;;;;;;;;;;;;;5132175;27;20086;-70
2023/09/11 10:11:37;;;;;;;3.95;2.45;;;;;;;;;;5131654;27;19925;-73
2023/09/11 10:14:08;;;;;;;3.88;2.60;;;;;;;;;;5131768;27;20081;-72
2023/09/11 10:16:38;;;;;;;5.00;2.50;;;;;;;;;;5131899;27;20043;-70
2023/09/11 10:19:04;;;;;;;4.60;2.53;;;;;;;;;;5132088;27;20098;-69
2023/09/11 10:21:32;;;;;;;4.00;2.67;;;;;;;;;;5131439;27;20133;-69
2023/09/11 10:24:15;;;;;;;4.65;2.50;;;;;;;;;;5131595;27;20509;-71
2023/09/11 10:26:56;;;;;;;3.08;2.40;;;;;;;;;;5131318;27;20494;-70
2023/09/11 10:29:41;;;;;;;2.80;2.28;;;;;;;;;;5131401;27;20043;-70
2023/09/11 10:32:41;;;;;;;3.83;2.50;;;;;;;;;;5130414;27;20559;-72
2023/09/11 10:35:09;;;;;;;3.93;2.13;;;;;;;;;;5130944;27;20051;-72
2023/09/11 10:37:40;;;;;;;3.50;2.63;;;;;;;;;;5131295;27;20062;-71
2023/09/11 10:40:09;;;;;;;4.10;2.50;;;;;;;;;;5130907;27;20054;-69
2023/09/11 10:42:36;;;;;;;3.33;2.55;;;;;;;;;;5131087;27;20091;-71
2023/09/11 10:45:03;;;;;;;3.33;2.40;;;;;;;;;;5130953;27;20043;-72
2023/09/11 10:47:30;;;;;;;4.93;2.70;;;;;;;;;;5131056;27;20402;-72
2023/09/11 10:49:57;;;;;;;3.78;2.40;;;;;;;;;;5131132;27;20321;-70
2023/09/11 10:52:27;;;;;;;3.28;2.20;;;;;;;;;;5130871;27;20479;-71
2023/09/11 10:54:53;;;;;;;6.03;2.60;;;;;;;;;;5130806;27;20047;-73
2023/09/11 10:57:20;;;;;;;3.55;2.63;;;;;;;;;;5130671;27;20039;-72
2023/09/11 10:59:49;;;;;;;3.70;2.80;;;;;;;;;;5130836;27;20380;-69
2023/09/11 11:02:21;;;;;;;4.05;2.30;;;;;;;;;;5130757;27;20047;-72
2023/09/11 11:04:48;;;;;;;4.10;2.55;;;;;;;;;;5130576;27;20051;-72
2023/09/11 11:07:15;;;;;;;2.90;2.05;;;;;;;;;;5130588;27;20040;-69
2023/09/11 11:09:48;;;;;;;4.50;2.70;;;;;;;;;;5130903;27;20050;-72
2023/09/11 11:12:31;;;;;;;4.13;2.85;;;;;;;;;;5130616;27;20144;-72
2023/09/11 11:15:19;;;;;;;3.35;2.30;;;;;;;;;;5130522;27;20082;-72
2023/09/11 11:17:46;;;;;;;3.28;2.35;;;;;;;;;;5130484;27;20051;-72
2023/09/11 11:20:17;;;;;;;3.67;2.63;;;;;;;;;;5130390;27;20058;-69
2023/09/11 11:22:44;;;;;;;2.97;2.35;;;;;;;;;;5130326;27;20051;-72
2023/09/11 11:25:11;;;;;;;3.30;2.35;;;;;;;;;;5111971;28;20055;-73
2023/09/11 11:27:41;;;;;;;3.45;2.40;;;;;;;;;;5130327;27;20114;-70
2023/09/11 11:30:11;;;;;;;4.00;2.55;;;;;;;;;;5130706;27;20035;-71
2023/09/11 11:32:40;;;;;;;5.65;2.47;;;;;;;;;;5130551;27;20134;-69
2023/09/11 11:35:10;;;;;;;3.72;2.17;;;;;;;;;;5130292;27;20040;-72
2023/09/11 11:37:44;;;;;;;4.05;2.35;;;;;;;;;;5130226;28;20039;-73
2023/09/11 11:40:44;;;;;;;3.10;2.40;;;;;;;;;;5130214;27;20066;-70
2023/09/11 11:43:13;;;;;;;3.63;2.38;;;;;;;;;;5133310;27;20095;-70
2023/09/11 11:45:49;;;;;;;5.78;2.40;;;;;;;;;;5134446;27;20095;-72
2023/09/11 11:48:16;;;;;;;4.05;2.58;;;;;;;;;;5135014;27;20101;-72
2023/09/11 11:50:44;;;;;;;4.90;2.30;;;;;;;;;;5134518;27;20051;-72
2023/09/11 11:53:19;;;;;;;3.50;2.30;;;;;;;;;;5134925;27;20054;-70
2023/09/11 11:55:49;;;;;;;3.40;2.38;;;;;;;;;;5134506;27;20047;-72
2023/09/11 11:58:16;;;;;;;3.58;2.45;;;;;;;;;;5134340;27;20039;-70
2023/09/11 12:00:59;;;;;;;3.65;2.20;;;;;;;;;;5134391;27;20051;-70
2023/09/11 12:03:44;;;;;;;3.22;2.00;;;;;;;;;;5134607;27;20046;-70
2023/09/11 12:06:12;;;;;;;2.88;2.28;;;;;;;;;;5134041;27;20048;-70
2023/09/11 12:08:40;;;;;;;3.03;2.10;;;;;;;;;;5134529;27;20067;-71
2023/09/11 12:11:08;;;;;;;5.95;2.35;;;;;;;;;;5134142;27;20059;-73
2023/09/11 12:13:35;;;;;;;4.15;2.10;;;;;;;;;;5134247;27;20047;-72
2023/09/11 12:16:16;;;;;;;2.97;2.10;;;;;;;;;;5133919;27;20050;-70
2023/09/11 12:18:43;;;;;;;3.03;2.22;;;;;;;;;;5134124;27;20043;-72
2023/09/11 12:21:10;;;;;;;2.63;2.15;;;;;;;;;;5133861;27;20043;-72
2023/09/11 12:23:37;;;;;;;4.13;2.50;;;;;;;;;;5133751;27;20498;-73
2023/09/11 12:26:07;;;;;;;5.07;2.80;;;;;;;;;;5134159;27;20051;-71
2023/09/11 12:28:34;;;;;;;3.03;2.20;;;;;;;;;;5133642;27;20046;-71
2023/09/11 12:31:07;;;;;;;3.78;2.40;;;;;;;;;;5116391;27;20059;-73
2023/09/11 12:33:35;;;;;;;3.42;2.20;;;;;;;;;;5133839;27;20046;-73
2023/09/11 12:36:04;;;;;;;3.58;2.40;;;;;;;;;;5133908;27;20043;-72
2023/09/11 12:38:31;;;;;;;4.10;2.20;;;;;;;;;;5133462;27;20055;-70
2023/09/11 12:40:58;;;;;;;2.53;2.15;;;;;;;;;;5133611;27;20079;-70
2023/09/11 12:43:25;;;;;;;5.80;2.67;;;;;;;;;;5133631;27;20066;-71
2023/09/11 12:45:53;;;;;;;2.30;1.90;;;;;;;;;;5133894;27;20053;-69
2023/09/11 12:48:21;;;;;;;3.30;2.08;;;;;;;;;;5133592;27;20051;-73
2023/09/11 12:50:48;;;;;;;3.15;2.00;;;;;;;;;;5133376;27;20040;-70
2023/09/11 12:53:15;;;;;;;3.03;2.05;;;;;;;;;;5132606;27;20548;-71
2023/09/11 12:55:42;;;;;;;2.58;2.15;;;;;;;;;;5132766;27;20055;-73
2023/09/11 12:58:09;;;;;;;2.75;2.15;;;;;;;;;;5132858;27;20047;-71
2023/09/11 13:00:37;;;;;;;3.10;2.05;;;;;;;;;;5133566;27;20049;-70
2023/09/11 13:03:06;;;;;;;2.15;1.67;;;;;;;;;;5132927;27;20487;-69
2023/09/11 13:05:33;;;;;;;2.90;2.10;;;;;;;;;;5133141;27;20047;-70
2023/09/11 13:07:59;;;;;;;4.15;2.13;;;;;;;;;;5132894;27;20061;-73
2023/09/11 13:10:26;;;;;;;2.70;2.08;;;;;;;;;;5132855;27;20043;-70
2023/09/11 13:12:53;;;;;;;4.72;2.42;;;;;;;;;;5132946;27;20047;-71
2023/09/11 13:15:20;;;;;;;2.65;2.00;;;;;;;;;;5132760;27;20043;-72
2023/09/11 13:17:47;;;;;;;3.22;2.30;;;;;;;;;;5133013;27;20057;-73
2023/09/11 13:20:14;;;;;;;2.60;2.13;;;;;;;;;;5132809;27;20054;-69
2023/09/11 13:22:42;;;;;;;2.92;2.13;;;;;;;;;;5132580;27;20591;-70
2023/09/11 13:25:12;;;;;;;3.88;2.35;;;;;;;;;;5132902;27;20091;-69
2023/09/11 13:27:42;;;;;;;;;;;;;;;;;;5132826;27;20043;-68
2023/09/11 13:30:09;;;;;;;3.78;2.25;;;;;;;;;;5132510;27;19926;-70
2023/09/11 13:32:37;;;;;;;4.18;2.40;;;;;;;;;;5132376;27;20525;-67
2023/09/11 13:35:05;;;;;;;4.18;2.50;;;;;;;;;;5114077;27;20039;-70
2023/09/11 13:37:33;;;;;;;3.63;2.45;;;;;;;;;;5132355;27;20131;-69
2023/09/11 13:40:00;;;;;;;3.85;2.38;;;;;;;;;;5132455;27;20575;-70
2023/09/11 13:42:26;;;;;;;4.13;2.28;;;;;;;;;;5131869;27;20055;-71
2023/09/11 13:44:55;;;;;;;2.80;2.30;;;;;;;;;;5132253;27;20047;-70
2023/09/11 13:47:23;;;;;;;2.80;2.03;;;;;;;;;;5132346;27;20100;-70
2023/09/11 13:49:50;;;;;;;3.50;2.10;;;;;;;;;;5132056;27;20043;-70
2023/09/11 13:52:18;;;;;;;4.00;2.22;;;;;;;;;;5131941;27;20043;-70
2023/09/11 13:54:46;;;;;;;4.13;2.25;;;;;;;;;;5132143;27;20104;-68
2023/09/11 13:57:13;;;;;;;3.42;2.10;;;;;;;;;;5132338;27;20039;-69
2023/09/11 13:59:40;;;;;;;2.95;2.28;;;;;;;;;;5131703;27;20047;-71
2023/09/11 14:02:07;;;;;;;2.72;2.20;;;;;;;;;;5131843;27;20082;-71
2023/09/11 14:04:34;;;;;;;4.00;2.28;;;;;;;;;;5131564;27;20579;-70
2023/09/11 14:07:01;;;;;;;2.65;2.03;;;;;;;;;;5130974;27;20039;-69
2023/09/11 14:09:29;;;;;;;3.63;2.22;;;;;;;;;;5131794;27;20067;-67
2023/09/11 14:11:55;;;;;;;4.18;2.00;;;;;;;;;;5132237;27;20047;-70
2023/09/11 14:14:22;;;;;;;4.03;2.17;;;;;;;;;;5131646;27;20047;-68
2023/09/11 14:16:49;;;;;;;3.33;2.20;;;;;;;;;;5131518;27;20490;-70
2023/09/11 14:19:16;;;;;;;3.17;2.00;;;;;;;;;;5131340;27;20498;-70
2023/09/11 14:21:42;;;;;;;3.03;2.35;;;;;;;;;;5131962;27;20050;-68
2023/09/11 14:24:09;;;;;;;2.95;2.20;;;;;;;;;;5131081;27;20216;-71
2023/09/11 14:26:36;;;;;;;3.05;2.40;;;;;;;;;;5131369;27;20059;-67
2023/09/11 14:29:03;;;;;;;2.88;2.17;;;;;;;;;;5113200;27;20070;-69
2023/09/11 14:31:30;;;;;;;3.92;2.28;;;;;;;;;;5131451;27;20047;-69
2023/09/11 14:33:57;;;;;;;8.90;2.47;;;;;;;;;;5131547;27;20070;-70
2023/09/11 14:36:23;;;;;;;3.88;2.45;;;;;;;;;;5131326;27;20047;-67
2023/09/11 14:38:50;;;;;;;3.10;2.30;;;;;;;;;;5131129;27;20043;-67
2023/09/11 14:41:17;;;;;;;3.15;2.00;;;;;;;;;;5130913;27;20141;-67
2023/09/11 14:43:43;;;;;;;3.13;2.45;;;;;;;;;;5131024;27;20044;-69
2023/09/11 14:46:10;;;;;;;3.63;2.08;;;;;;;;;;5131122;27;20047;-71
2023/09/11 14:48:36;;;;;;;5.50;2.38;;;;;;;;;;5131003;27;20084;-69
2023/09/11 14:51:03;;;;;;;4.15;2.25;;;;;;;;;;5131123;27;20084;-70